SIA442 WSSS-VNKT
Flight info
| Callsign | SIA442 |
|---|---|
| Flight time | N/A |
| Altitude | 30000 |
| Route | VMR6A VMR B469 VPK M751 VKB M626 IKOGA/N0483F320 M626 BGO L507 SUMSU/N0480F340 L507 CEA R325 DUMKA R581 MONDA G463 ROMEO ROMEO3R |
| Aircraft | B738/M-SDE2E3FGHIRWXY/LB1 |
Departure
| Time | 2026-05-07 01:10 |
|---|---|
| Airport | Singapore Changi Airport (WSSS) |
Arrival
| Time | N/A |
|---|---|
| Airport | Tribhuvan International Airport (VNKT) |
| Time | Latitude | Longitude | Altitude | Speed | Heading |
|---|---|---|---|---|---|
| 2026-05-07 00:44 | 1.35946 | 103.99202 | 46 ft | 0 kts | 293° |
| 2026-05-07 01:00 | 1.35945 | 103.99205 | 46 ft | 2 kts | 293° |
| 2026-05-07 01:00 | 1.35939 | 103.99219 | 45 ft | 2 kts | 294° |
| 2026-05-07 01:00 | 1.35932 | 103.99233 | 45 ft | 2 kts | 294° |
| 2026-05-07 01:01 | 1.35926 | 103.99247 | 44 ft | 2 kts | 293° |
| 2026-05-07 01:01 | 1.35920 | 103.99262 | 44 ft | 2 kts | 295° |
| 2026-05-07 01:01 | 1.35910 | 103.99272 | 44 ft | 2 kts | 335° |
| 2026-05-07 01:01 | 1.35895 | 103.99275 | 44 ft | 2 kts | 6° |
| 2026-05-07 01:02 | 1.35887 | 103.99273 | 44 ft | 1 kts | 25° |
| 2026-05-07 01:02 | 1.35882 | 103.99271 | 45 ft | 0 kts | 22° |
| 2026-05-07 01:03 | 1.35883 | 103.99271 | 44 ft | 1 kts | 22° |
| 2026-05-07 01:04 | 1.35909 | 103.99282 | 44 ft | 9 kts | 22° |
| 2026-05-07 01:04 | 1.35983 | 103.99313 | 43 ft | 11 kts | 22° |
| 2026-05-07 01:04 | 1.36020 | 103.99333 | 43 ft | 4 kts | 93° |
| 2026-05-07 01:04 | 1.35996 | 103.99389 | 41 ft | 12 kts | 114° |
| 2026-05-07 01:05 | 1.35958 | 103.99472 | 38 ft | 13 kts | 129° |
| 2026-05-07 01:05 | 1.35862 | 103.99491 | 37 ft | 16 kts | 182° |
| 2026-05-07 01:05 | 1.35779 | 103.99525 | 36 ft | 13 kts | 198° |
| 2026-05-07 01:05 | 1.35650 | 103.99474 | 38 ft | 24 kts | 204° |
| 2026-05-07 01:06 | 1.35497 | 103.99409 | 38 ft | 23 kts | 204° |
| 2026-05-07 01:06 | 1.35345 | 103.99345 | 39 ft | 23 kts | 202° |
| 2026-05-07 01:06 | 1.35196 | 103.99284 | 39 ft | 23 kts | 203° |
| 2026-05-07 01:06 | 1.35047 | 103.99218 | 40 ft | 23 kts | 204° |
| 2026-05-07 01:07 | 1.34897 | 103.99149 | 39 ft | 23 kts | 205° |
| 2026-05-07 01:07 | 1.34744 | 103.99088 | 38 ft | 23 kts | 194° |
| 2026-05-07 01:07 | 1.34584 | 103.99024 | 35 ft | 25 kts | 206° |
| 2026-05-07 01:07 | 1.34420 | 103.98950 | 32 ft | 26 kts | 203° |
| 2026-05-07 01:08 | 1.34246 | 103.98877 | 29 ft | 27 kts | 203° |
| 2026-05-07 01:08 | 1.34068 | 103.98799 | 28 ft | 26 kts | 204° |
| 2026-05-07 01:08 | 1.33894 | 103.98733 | 29 ft | 26 kts | 201° |
| 2026-05-07 01:08 | 1.33722 | 103.98659 | 27 ft | 25 kts | 202° |
| 2026-05-07 01:09 | 1.33589 | 103.98649 | 27 ft | 16 kts | 126° |
| 2026-05-07 01:09 | 1.33554 | 103.98755 | 27 ft | 15 kts | 103° |
| 2026-05-07 01:09 | 1.33622 | 103.98814 | 27 ft | 15 kts | 22° |
| 2026-05-07 01:09 | 1.33922 | 103.98938 | 27 ft | 79 kts | 23° |
| 2026-05-07 01:10 | 1.34614 | 103.99227 | 33 ft | 135 kts | 23° |
| 2026-05-07 01:10 | 1.35661 | 103.99668 | 44 ft | 183 kts | 23° |
| 2026-05-07 01:10 | 1.36830 | 104.00161 | 641 ft | 183 kts | 23° |
| 2026-05-07 01:10 | 1.38027 | 104.00668 | 1156 ft | 193 kts | 24° |
| 2026-05-07 01:11 | 1.39304 | 104.01212 | 1662 ft | 204 kts | 24° |
| 2026-05-07 01:11 | 1.40613 | 104.01766 | 2217 ft | 209 kts | 24° |
| 2026-05-07 01:11 | 1.42005 | 104.02355 | 2504 ft | 224 kts | 24° |
| 2026-05-07 01:11 | 1.43487 | 104.02980 | 2794 ft | 238 kts | 24° |
| 2026-05-07 01:12 | 1.45057 | 104.03643 | 3225 ft | 245 kts | 24° |
| 2026-05-07 01:12 | 1.46643 | 104.04312 | 3762 ft | 248 kts | 24° |
| 2026-05-07 01:12 | 1.48288 | 104.04887 | 4196 ft | 257 kts | 13° |
| 2026-05-07 01:12 | 1.50115 | 104.04896 | 4466 ft | 273 kts | 346° |
| 2026-05-07 01:13 | 1.51883 | 104.04117 | 5020 ft | 277 kts | 332° |
| 2026-05-07 01:13 | 1.53561 | 104.03165 | 5590 ft | 279 kts | 331° |
| 2026-05-07 01:13 | 1.55258 | 104.02206 | 6183 ft | 281 kts | 332° |
| 2026-05-07 01:13 | 1.56955 | 104.01272 | 6755 ft | 283 kts | 332° |
| 2026-05-07 01:14 | 1.58704 | 104.00325 | 7316 ft | 286 kts | 333° |
| 2026-05-07 01:14 | 1.60478 | 103.99371 | 7871 ft | 289 kts | 333° |
| 2026-05-07 01:14 | 1.62252 | 103.98416 | 8445 ft | 292 kts | 333° |
| 2026-05-07 01:14 | 1.64036 | 103.97456 | 9001 ft | 295 kts | 333° |
| 2026-05-07 01:15 | 1.65864 | 103.96470 | 9574 ft | 297 kts | 333° |
| 2026-05-07 01:15 | 1.67675 | 103.95493 | 10145 ft | 300 kts | 333° |
| 2026-05-07 01:15 | 1.69562 | 103.94476 | 10434 ft | 314 kts | 333° |
| 2026-05-07 01:15 | 1.71535 | 103.93415 | 10683 ft | 329 kts | 333° |
| 2026-05-07 01:16 | 1.73595 | 103.92307 | 10890 ft | 344 kts | 334° |
| 2026-05-07 01:16 | 1.75835 | 103.91279 | 11071 ft | 358 kts | 342° |
| 2026-05-07 01:16 | 1.78312 | 103.90743 | 11244 ft | 370 kts | 355° |
| 2026-05-07 01:16 | 1.80912 | 103.90543 | 11375 ft | 384 kts | 359° |
| 2026-05-07 01:17 | 1.83631 | 103.90453 | 11588 ft | 395 kts | 0° |
| 2026-05-07 01:17 | 1.86403 | 103.90372 | 12110 ft | 397 kts | 360° |
| 2026-05-07 01:17 | 1.89193 | 103.90266 | 12634 ft | 399 kts | 359° |
| 2026-05-07 01:17 | 1.91964 | 103.90133 | 13136 ft | 402 kts | 359° |
| 2026-05-07 01:18 | 1.94772 | 103.89977 | 13621 ft | 405 kts | 358° |
| 2026-05-07 01:18 | 1.97632 | 103.89805 | 14108 ft | 409 kts | 358° |
| 2026-05-07 01:18 | 2.00480 | 103.89626 | 14590 ft | 412 kts | 358° |
| 2026-05-07 01:18 | 2.03324 | 103.89444 | 15074 ft | 415 kts | 358° |
| 2026-05-07 01:19 | 2.06237 | 103.89256 | 15586 ft | 417 kts | 358° |
| 2026-05-07 01:19 | 2.09146 | 103.89069 | 16034 ft | 420 kts | 358° |
| 2026-05-07 01:19 | 2.12065 | 103.88882 | 16494 ft | 423 kts | 358° |
| 2026-05-07 01:19 | 2.15042 | 103.88692 | 16916 ft | 427 kts | 358° |
| 2026-05-07 01:20 | 2.18032 | 103.88501 | 17328 ft | 430 kts | 358° |
| 2026-05-07 01:20 | 2.21029 | 103.88309 | 17736 ft | 433 kts | 358° |
| 2026-05-07 01:20 | 2.24056 | 103.88117 | 18159 ft | 437 kts | 358° |
| 2026-05-07 01:20 | 2.27091 | 103.87924 | 18550 ft | 439 kts | 358° |
| 2026-05-07 01:21 | 2.30193 | 103.87726 | 18927 ft | 443 kts | 358° |
| 2026-05-07 01:21 | 2.33269 | 103.87521 | 19312 ft | 445 kts | 357° |
| 2026-05-07 01:21 | 2.36377 | 103.87175 | 19675 ft | 449 kts | 353° |
| 2026-05-07 01:21 | 2.39436 | 103.86528 | 20028 ft | 454 kts | 346° |
| 2026-05-07 01:22 | 2.42481 | 103.85525 | 20395 ft | 458 kts | 341° |
| 2026-05-07 01:22 | 2.45442 | 103.84327 | 20729 ft | 461 kts | 339° |
| 2026-05-07 01:22 | 2.48360 | 103.83033 | 21069 ft | 464 kts | 337° |
| 2026-05-07 01:22 | 2.51349 | 103.81651 | 21401 ft | 467 kts | 336° |
| 2026-05-07 01:23 | 2.54305 | 103.80264 | 21716 ft | 470 kts | 336° |
| 2026-05-07 01:23 | 2.57248 | 103.78883 | 22040 ft | 473 kts | 336° |
| 2026-05-07 01:23 | 2.60242 | 103.77481 | 22385 ft | 475 kts | 336° |
| 2026-05-07 01:23 | 2.63250 | 103.76082 | 22736 ft | 477 kts | 336° |
| 2026-05-07 01:24 | 2.66291 | 103.74674 | 23070 ft | 480 kts | 336° |
| 2026-05-07 01:24 | 2.69318 | 103.73277 | 23429 ft | 481 kts | 337° |
| 2026-05-07 01:24 | 2.72394 | 103.71864 | 23759 ft | 484 kts | 337° |
| 2026-05-07 01:24 | 2.75468 | 103.70461 | 24105 ft | 486 kts | 337° |
| 2026-05-07 01:25 | 2.78532 | 103.69079 | 24412 ft | 488 kts | 338° |
| 2026-05-07 01:25 | 2.81653 | 103.67681 | 24779 ft | 489 kts | 338° |
| 2026-05-07 01:25 | 2.84778 | 103.66286 | 25069 ft | 492 kts | 338° |
| 2026-05-07 01:25 | 2.87936 | 103.64877 | 25485 ft | 491 kts | 338° |
| 2026-05-07 01:26 | 2.91009 | 103.63506 | 25999 ft | 488 kts | 338° |
| 2026-05-07 01:26 | 2.94137 | 103.62113 | 26407 ft | 488 kts | 338° |
| 2026-05-07 01:26 | 2.97252 | 103.60729 | 26857 ft | 487 kts | 338° |
| 2026-05-07 01:26 | 3.00340 | 103.59358 | 27284 ft | 485 kts | 338° |
| 2026-05-07 01:27 | 3.03407 | 103.57994 | 27747 ft | 483 kts | 338° |
| 2026-05-07 01:27 | 3.06470 | 103.56633 | 28179 ft | 481 kts | 338° |
| 2026-05-07 01:27 | 3.09556 | 103.55262 | 28573 ft | 481 kts | 338° |
| 2026-05-07 01:27 | 3.12628 | 103.53896 | 28969 ft | 480 kts | 338° |
| 2026-05-07 01:28 | 3.15660 | 103.52548 | 29366 ft | 479 kts | 338° |
| 2026-05-07 01:28 | 3.18725 | 103.51180 | 29759 ft | 478 kts | 337° |
| 2026-05-07 01:28 | 3.21733 | 103.49830 | 29828 ft | 481 kts | 337° |
| 2026-05-07 01:29 | 3.27855 | 103.47074 | 29834 ft | 478 kts | 337° |
| 2026-05-07 01:29 | 3.33920 | 103.44340 | 29836 ft | 478 kts | 337° |
| 2026-05-07 01:30 | 3.39996 | 103.41612 | 29838 ft | 479 kts | 338° |
| 2026-05-07 01:30 | 3.46175 | 103.39063 | 29840 ft | 477 kts | 340° |
| 2026-05-07 01:31 | 3.52383 | 103.36640 | 29843 ft | 478 kts | 340° |
| 2026-05-07 01:31 | 3.58551 | 103.34241 | 29845 ft | 478 kts | 340° |
| 2026-05-07 01:32 | 3.64755 | 103.31806 | 29847 ft | 477 kts | 340° |
| 2026-05-07 01:32 | 3.70961 | 103.29354 | 29848 ft | 478 kts | 340° |
| 2026-05-07 01:33 | 3.77162 | 103.26894 | 29849 ft | 478 kts | 339° |
| 2026-05-07 01:33 | 3.83367 | 103.24427 | 29850 ft | 479 kts | 340° |
| 2026-05-07 01:34 | 3.89578 | 103.21957 | 29854 ft | 478 kts | 340° |
| 2026-05-07 01:34 | 3.95759 | 103.19499 | 29858 ft | 479 kts | 340° |
| 2026-05-07 01:35 | 4.01982 | 103.17025 | 29887 ft | 481 kts | 339° |
| 2026-05-07 01:35 | 4.05074 | 103.15795 | 30285 ft | 479 kts | 339° |
| 2026-05-07 01:35 | 4.08190 | 103.14556 | 30771 ft | 476 kts | 339° |
| 2026-05-07 01:35 | 4.11278 | 103.13327 | 31082 ft | 476 kts | 339° |
| 2026-05-07 01:36 | 4.14343 | 103.12108 | 31410 ft | 476 kts | 339° |
| 2026-05-07 01:36 | 4.17440 | 103.10875 | 31273 ft | 484 kts | 339° |
| 2026-05-07 01:36 | 4.20566 | 103.09632 | 31688 ft | 480 kts | 339° |
| 2026-05-07 01:37 | 4.26670 | 103.07201 | 31610 ft | 456 kts | 339° |
| 2026-05-07 01:37 | 4.32559 | 103.04857 | 31665 ft | 462 kts | 339° |
| 2026-05-07 01:38 | 4.38620 | 103.02446 | 31768 ft | 474 kts | 339° |
| 2026-05-07 01:38 | 4.41710 | 103.01217 | 31884 ft | 478 kts | 339° |
| 2026-05-07 01:38 | 4.44810 | 102.99983 | 31887 ft | 478 kts | 339° |
| 2026-05-07 01:39 | 4.51001 | 102.97517 | 31895 ft | 475 kts | 339° |
| 2026-05-07 01:39 | 4.57123 | 102.95077 | 31902 ft | 476 kts | 339° |
| 2026-05-07 01:40 | 4.63313 | 102.92611 | 31903 ft | 476 kts | 339° |
| 2026-05-07 01:40 | 4.69460 | 102.90161 | 31907 ft | 475 kts | 339° |
| 2026-05-07 01:41 | 4.75610 | 102.87710 | 31913 ft | 475 kts | 339° |
| 2026-05-07 01:41 | 4.81733 | 102.85269 | 31912 ft | 474 kts | 339° |
| 2026-05-07 01:42 | 4.87892 | 102.82814 | 31908 ft | 474 kts | 339° |
| 2026-05-07 01:42 | 4.94032 | 102.80372 | 31902 ft | 475 kts | 339° |
| 2026-05-07 01:43 | 5.00183 | 102.77927 | 31888 ft | 474 kts | 339° |
| 2026-05-07 01:43 | 5.06360 | 102.75472 | 31885 ft | 474 kts | 339° |
| 2026-05-07 01:44 | 5.12468 | 102.73044 | 31883 ft | 475 kts | 339° |
| 2026-05-07 01:44 | 5.18645 | 102.70586 | 31885 ft | 475 kts | 339° |
| 2026-05-07 01:45 | 5.24798 | 102.68129 | 31895 ft | 475 kts | 339° |
| 2026-05-07 01:45 | 5.30976 | 102.65633 | 31892 ft | 476 kts | 339° |
| 2026-05-07 01:46 | 5.37127 | 102.63145 | 31885 ft | 475 kts | 339° |
| 2026-05-07 01:46 | 5.43272 | 102.60681 | 31877 ft | 475 kts | 339° |
| 2026-05-07 01:47 | 5.49428 | 102.58226 | 31872 ft | 475 kts | 339° |
| 2026-05-07 01:47 | 5.55553 | 102.55782 | 31868 ft | 475 kts | 339° |
| 2026-05-07 01:48 | 5.61731 | 102.53315 | 31864 ft | 475 kts | 339° |
| 2026-05-07 01:48 | 5.67867 | 102.50862 | 31861 ft | 476 kts | 339° |
| 2026-05-07 01:49 | 5.74036 | 102.48393 | 31852 ft | 476 kts | 339° |
| 2026-05-07 01:49 | 5.80198 | 102.45929 | 31848 ft | 477 kts | 339° |
| 2026-05-07 01:50 | 5.86374 | 102.43457 | 31846 ft | 476 kts | 339° |
| 2026-05-07 01:50 | 5.92517 | 102.40998 | 31845 ft | 476 kts | 339° |
| 2026-05-07 01:51 | 5.98674 | 102.38534 | 31845 ft | 476 kts | 340° |
| 2026-05-07 01:51 | 6.04824 | 102.36070 | 31845 ft | 476 kts | 340° |
| 2026-05-07 01:52 | 6.11017 | 102.33589 | 31847 ft | 476 kts | 339° |
| 2026-05-07 01:52 | 6.17158 | 102.31099 | 31847 ft | 477 kts | 338° |
| 2026-05-07 01:53 | 6.23151 | 102.28206 | 31848 ft | 478 kts | 334° |
| 2026-05-07 01:53 | 6.29051 | 102.25094 | 31849 ft | 478 kts | 333° |
| 2026-05-07 01:54 | 6.34957 | 102.21970 | 31853 ft | 477 kts | 334° |
| 2026-05-07 01:54 | 6.40831 | 102.18901 | 31853 ft | 478 kts | 334° |
| 2026-05-07 01:55 | 6.46768 | 102.15829 | 31853 ft | 478 kts | 334° |
| 2026-05-07 01:55 | 6.52682 | 102.12782 | 31852 ft | 478 kts | 334° |
| 2026-05-07 01:56 | 6.58622 | 102.09727 | 31851 ft | 479 kts | 334° |
| 2026-05-07 01:56 | 6.64544 | 102.06680 | 31852 ft | 478 kts | 334° |
| 2026-05-07 01:57 | 6.70488 | 102.03621 | 31856 ft | 477 kts | 334° |
| 2026-05-07 01:57 | 6.76400 | 102.00577 | 31857 ft | 478 kts | 334° |
| 2026-05-07 01:58 | 6.82330 | 101.97524 | 31858 ft | 477 kts | 334° |
| 2026-05-07 01:58 | 6.88244 | 101.94478 | 31862 ft | 478 kts | 334° |
| 2026-05-07 01:59 | 6.94167 | 101.91425 | 31860 ft | 479 kts | 334° |
| 2026-05-07 01:59 | 7.00099 | 101.88368 | 31859 ft | 480 kts | 334° |
| 2026-05-07 02:00 | 7.06033 | 101.85307 | 31853 ft | 479 kts | 334° |
| 2026-05-07 02:00 | 7.12012 | 101.82224 | 31847 ft | 479 kts | 334° |
| 2026-05-07 02:01 | 7.17947 | 101.79161 | 31848 ft | 479 kts | 334° |
| 2026-05-07 02:01 | 7.23870 | 101.76105 | 31847 ft | 479 kts | 334° |
| 2026-05-07 02:02 | 7.29792 | 101.73048 | 31847 ft | 479 kts | 334° |
| 2026-05-07 02:02 | 7.35765 | 101.69963 | 31843 ft | 480 kts | 334° |
| 2026-05-07 02:03 | 7.41685 | 101.66905 | 31845 ft | 480 kts | 334° |
| 2026-05-07 02:03 | 7.47645 | 101.63825 | 31843 ft | 481 kts | 334° |
| 2026-05-07 02:04 | 7.53612 | 101.60742 | 31846 ft | 479 kts | 334° |
| 2026-05-07 02:04 | 7.59542 | 101.57676 | 31843 ft | 479 kts | 334° |
| 2026-05-07 02:05 | 7.65507 | 101.54591 | 31844 ft | 481 kts | 334° |
| 2026-05-07 02:05 | 7.71450 | 101.51531 | 31842 ft | 480 kts | 334° |
| 2026-05-07 02:06 | 7.77436 | 101.48464 | 31845 ft | 482 kts | 334° |
| 2026-05-07 02:06 | 7.83409 | 101.45405 | 31842 ft | 479 kts | 334° |
| 2026-05-07 02:07 | 7.89328 | 101.42369 | 31845 ft | 480 kts | 334° |
| 2026-05-07 02:07 | 7.98303 | 101.37764 | 31845 ft | 481 kts | 334° |
| 2026-05-07 02:08 | 8.04265 | 101.34702 | 31842 ft | 482 kts | 334° |
| 2026-05-07 02:08 | 8.10235 | 101.31635 | 31843 ft | 480 kts | 334° |
| 2026-05-07 02:09 | 8.16199 | 101.28569 | 31844 ft | 480 kts | 334° |
| 2026-05-07 02:09 | 8.22192 | 101.25487 | 31845 ft | 481 kts | 334° |
| 2026-05-07 02:10 | 8.28136 | 101.22430 | 31849 ft | 481 kts | 334° |
| 2026-05-07 02:10 | 8.34120 | 101.19351 | 31856 ft | 480 kts | 334° |
| 2026-05-07 02:11 | 8.40077 | 101.16285 | 31864 ft | 480 kts | 333° |
| 2026-05-07 02:11 | 8.46056 | 101.13210 | 31864 ft | 481 kts | 334° |
| 2026-05-07 02:12 | 8.51989 | 101.10153 | 31865 ft | 481 kts | 333° |
| 2026-05-07 02:12 | 8.57953 | 101.07079 | 31865 ft | 480 kts | 333° |
| 2026-05-07 02:13 | 8.63927 | 101.04012 | 31864 ft | 481 kts | 333° |
| 2026-05-07 02:13 | 8.69924 | 101.00945 | 31864 ft | 481 kts | 333° |
| 2026-05-07 02:14 | 8.75897 | 100.97893 | 31864 ft | 481 kts | 333° |
| 2026-05-07 02:14 | 8.81901 | 100.94821 | 31863 ft | 480 kts | 333° |
| 2026-05-07 02:15 | 8.87850 | 100.91775 | 31863 ft | 479 kts | 334° |
| 2026-05-07 02:15 | 8.93789 | 100.88732 | 31864 ft | 478 kts | 333° |
| 2026-05-07 02:16 | 8.99753 | 100.85674 | 31864 ft | 479 kts | 333° |
| 2026-05-07 02:16 | 9.05706 | 100.82620 | 31863 ft | 480 kts | 333° |
| 2026-05-07 02:17 | 9.11674 | 100.79559 | 31864 ft | 480 kts | 333° |
| 2026-05-07 02:17 | 9.17634 | 100.76499 | 31863 ft | 480 kts | 334° |
| 2026-05-07 02:18 | 9.23601 | 100.73435 | 31864 ft | 478 kts | 334° |
| 2026-05-07 02:18 | 9.29533 | 100.70388 | 31863 ft | 479 kts | 334° |
| 2026-05-07 02:19 | 9.35461 | 100.67341 | 31862 ft | 477 kts | 334° |
| 2026-05-07 02:19 | 9.41418 | 100.64279 | 31859 ft | 478 kts | 334° |
| 2026-05-07 02:20 | 9.47341 | 100.61233 | 31856 ft | 478 kts | 333° |
| 2026-05-07 02:20 | 9.53261 | 100.58187 | 31857 ft | 477 kts | 334° |
| 2026-05-07 02:21 | 9.59181 | 100.55142 | 31859 ft | 477 kts | 334° |
| 2026-05-07 02:21 | 9.65133 | 100.52080 | 31857 ft | 477 kts | 334° |
| 2026-05-07 02:22 | 9.71078 | 100.49022 | 31858 ft | 476 kts | 333° |
| 2026-05-07 02:22 | 9.76981 | 100.46013 | 31859 ft | 477 kts | 334° |
| 2026-05-07 02:23 | 9.82939 | 100.43001 | 31859 ft | 477 kts | 334° |
| 2026-05-07 02:23 | 9.88893 | 100.39991 | 31861 ft | 475 kts | 334° |
| 2026-05-07 02:24 | 9.94802 | 100.37000 | 31863 ft | 475 kts | 334° |
| 2026-05-07 02:24 | 10.00734 | 100.33993 | 31865 ft | 475 kts | 334° |
| 2026-05-07 02:25 | 10.06622 | 100.31007 | 31865 ft | 476 kts | 334° |
| 2026-05-07 02:25 | 10.12581 | 100.27983 | 31867 ft | 476 kts | 334° |
| 2026-05-07 02:26 | 10.18483 | 100.24987 | 31868 ft | 476 kts | 334° |
| 2026-05-07 02:26 | 10.24422 | 100.21970 | 31869 ft | 475 kts | 334° |
| 2026-05-07 02:27 | 10.30351 | 100.18958 | 31866 ft | 475 kts | 334° |
| 2026-05-07 02:27 | 10.36243 | 100.15962 | 31866 ft | 474 kts | 334° |
| 2026-05-07 02:28 | 10.42159 | 100.12954 | 31866 ft | 473 kts | 334° |
| 2026-05-07 02:28 | 10.48028 | 100.09971 | 31864 ft | 474 kts | 334° |
| 2026-05-07 02:29 | 10.53958 | 100.06950 | 31865 ft | 475 kts | 334° |
| 2026-05-07 02:29 | 10.59830 | 100.03960 | 31865 ft | 473 kts | 334° |
| 2026-05-07 02:30 | 10.65712 | 100.00962 | 31865 ft | 473 kts | 334° |
| 2026-05-07 02:30 | 10.71630 | 99.97945 | 31864 ft | 471 kts | 334° |
| 2026-05-07 02:31 | 10.77507 | 99.94948 | 31865 ft | 472 kts | 334° |
| 2026-05-07 02:31 | 10.83370 | 99.91958 | 31863 ft | 471 kts | 334° |
| 2026-05-07 02:32 | 10.89201 | 99.88984 | 31865 ft | 470 kts | 334° |
| 2026-05-07 02:32 | 10.95074 | 99.85986 | 31864 ft | 470 kts | 334° |
| 2026-05-07 02:33 | 11.00930 | 99.82996 | 31865 ft | 470 kts | 334° |
| 2026-05-07 02:33 | 11.06769 | 99.80015 | 31864 ft | 470 kts | 334° |
| 2026-05-07 02:34 | 11.12628 | 99.77021 | 31864 ft | 471 kts | 334° |
| 2026-05-07 02:34 | 11.18478 | 99.74007 | 31866 ft | 470 kts | 334° |
| 2026-05-07 02:35 | 11.24304 | 99.70946 | 31868 ft | 469 kts | 333° |
| 2026-05-07 02:35 | 11.30125 | 99.67874 | 31870 ft | 470 kts | 333° |
| 2026-05-07 02:36 | 11.35928 | 99.64816 | 31872 ft | 470 kts | 333° |
| 2026-05-07 02:36 | 11.41732 | 99.61759 | 31878 ft | 470 kts | 333° |
| 2026-05-07 02:37 | 11.47559 | 99.58693 | 31886 ft | 470 kts | 333° |
| 2026-05-07 02:37 | 11.53370 | 99.55634 | 31893 ft | 469 kts | 333° |
| 2026-05-07 02:38 | 11.59141 | 99.52595 | 31905 ft | 469 kts | 333° |
| 2026-05-07 02:38 | 11.64967 | 99.49529 | 31917 ft | 469 kts | 333° |
| 2026-05-07 02:39 | 11.70797 | 99.46481 | 31921 ft | 469 kts | 334° |
| 2026-05-07 02:39 | 11.76617 | 99.43446 | 31924 ft | 469 kts | 333° |
| 2026-05-07 02:40 | 11.82424 | 99.40414 | 31926 ft | 468 kts | 333° |
| 2026-05-07 02:40 | 11.88203 | 99.37395 | 31924 ft | 468 kts | 333° |
| 2026-05-07 02:41 | 11.94011 | 99.34358 | 31921 ft | 467 kts | 333° |
| 2026-05-07 02:41 | 11.99782 | 99.31338 | 31925 ft | 468 kts | 333° |
| 2026-05-07 02:42 | 12.05612 | 99.28286 | 31925 ft | 468 kts | 333° |
| 2026-05-07 02:42 | 12.11376 | 99.25266 | 31920 ft | 468 kts | 333° |
| 2026-05-07 02:43 | 12.17182 | 99.22223 | 31913 ft | 468 kts | 333° |
| 2026-05-07 02:43 | 12.22993 | 99.19176 | 31910 ft | 465 kts | 333° |
| 2026-05-07 02:44 | 12.28751 | 99.16155 | 31905 ft | 465 kts | 333° |
| 2026-05-07 02:44 | 12.34522 | 99.13126 | 31908 ft | 464 kts | 333° |
| 2026-05-07 02:45 | 12.40264 | 99.10111 | 31908 ft | 466 kts | 333° |
| 2026-05-07 02:45 | 12.46049 | 99.07071 | 31922 ft | 465 kts | 334° |
| 2026-05-07 02:46 | 12.51786 | 99.04055 | 31933 ft | 465 kts | 333° |
| 2026-05-07 02:46 | 12.57567 | 99.01014 | 31945 ft | 464 kts | 334° |
| 2026-05-07 02:47 | 12.63306 | 98.97994 | 32450 ft | 463 kts | 334° |
| 2026-05-07 02:47 | 12.66147 | 98.96498 | 32983 ft | 460 kts | 333° |
| 2026-05-07 02:47 | 12.69022 | 98.94984 | 33360 ft | 459 kts | 333° |
| 2026-05-07 02:48 | 12.71855 | 98.93491 | 33751 ft | 458 kts | 333° |
| 2026-05-07 02:48 | 12.74674 | 98.92006 | 33944 ft | 460 kts | 333° |
| 2026-05-07 02:48 | 12.80424 | 98.88976 | 33949 ft | 459 kts | 333° |
| 2026-05-07 02:49 | 12.86149 | 98.85958 | 33943 ft | 459 kts | 334° |
| 2026-05-07 02:49 | 12.91822 | 98.82965 | 33944 ft | 459 kts | 333° |
| 2026-05-07 02:50 | 12.97501 | 98.79967 | 33936 ft | 459 kts | 333° |
| 2026-05-07 02:50 | 13.03223 | 98.76945 | 33933 ft | 459 kts | 334° |
| 2026-05-07 02:51 | 13.08887 | 98.73953 | 33928 ft | 458 kts | 334° |
| 2026-05-07 02:51 | 13.14597 | 98.70935 | 33929 ft | 459 kts | 334° |
| 2026-05-07 02:52 | 13.20275 | 98.67931 | 33930 ft | 460 kts | 334° |
| 2026-05-07 02:52 | 13.25987 | 98.64908 | 33924 ft | 459 kts | 334° |
| 2026-05-07 02:53 | 13.31690 | 98.61888 | 33939 ft | 459 kts | 334° |
| 2026-05-07 02:53 | 13.37391 | 98.58868 | 33947 ft | 459 kts | 334° |
| 2026-05-07 02:54 | 13.43050 | 98.55868 | 33948 ft | 459 kts | 334° |
| 2026-05-07 02:54 | 13.48743 | 98.52847 | 33949 ft | 459 kts | 334° |
| 2026-05-07 02:55 | 13.54451 | 98.49838 | 33937 ft | 460 kts | 334° |
| 2026-05-07 02:55 | 13.60165 | 98.46856 | 33920 ft | 459 kts | 334° |
| 2026-05-07 02:56 | 13.65855 | 98.43888 | 33912 ft | 459 kts | 334° |
| 2026-05-07 02:56 | 13.71594 | 98.40891 | 33897 ft | 459 kts | 334° |
| 2026-05-07 02:57 | 13.77292 | 98.37910 | 33895 ft | 458 kts | 334° |
| 2026-05-07 02:57 | 13.83000 | 98.34922 | 33892 ft | 459 kts | 334° |
| 2026-05-07 02:58 | 13.88701 | 98.31934 | 33892 ft | 460 kts | 334° |
| 2026-05-07 02:58 | 13.94406 | 98.28942 | 33892 ft | 459 kts | 334° |
| 2026-05-07 02:59 | 14.00100 | 98.25953 | 33887 ft | 459 kts | 334° |
| 2026-05-07 02:59 | 14.05842 | 98.22938 | 33890 ft | 459 kts | 334° |
| 2026-05-07 03:00 | 14.11545 | 98.19942 | 33893 ft | 459 kts | 334° |
| 2026-05-07 03:00 | 14.17240 | 98.16953 | 33901 ft | 459 kts | 334° |
| 2026-05-07 03:01 | 14.22962 | 98.13949 | 33901 ft | 459 kts | 334° |
| 2026-05-07 03:01 | 14.28671 | 98.10950 | 33903 ft | 459 kts | 334° |
| 2026-05-07 03:02 | 14.34403 | 98.07938 | 33904 ft | 459 kts | 334° |
| 2026-05-07 03:02 | 14.40093 | 98.04946 | 33912 ft | 459 kts | 334° |
| 2026-05-07 03:03 | 14.45766 | 98.01962 | 33917 ft | 460 kts | 334° |
| 2026-05-07 03:03 | 14.51523 | 97.98931 | 33913 ft | 459 kts | 334° |
| 2026-05-07 03:04 | 14.57221 | 97.95929 | 33912 ft | 460 kts | 334° |
| 2026-05-07 03:04 | 14.62914 | 97.92928 | 33911 ft | 459 kts | 334° |
| 2026-05-07 03:05 | 14.68591 | 97.89933 | 33906 ft | 459 kts | 333° |
| 2026-05-07 03:05 | 14.74312 | 97.86907 | 33905 ft | 459 kts | 333° |
| 2026-05-07 03:06 | 14.80021 | 97.83881 | 33902 ft | 459 kts | 333° |
| 2026-05-07 03:06 | 14.85695 | 97.80872 | 33891 ft | 458 kts | 333° |
| 2026-05-07 03:07 | 14.91385 | 97.77853 | 33883 ft | 458 kts | 334° |
| 2026-05-07 03:07 | 14.97084 | 97.74830 | 33879 ft | 458 kts | 333° |
| 2026-05-07 03:08 | 15.02739 | 97.71826 | 33878 ft | 459 kts | 333° |
| 2026-05-07 03:08 | 15.08420 | 97.68806 | 33877 ft | 458 kts | 333° |
| 2026-05-07 03:09 | 15.14125 | 97.65771 | 33877 ft | 458 kts | 333° |
| 2026-05-07 03:09 | 15.19777 | 97.62762 | 33877 ft | 458 kts | 333° |
| 2026-05-07 03:10 | 15.25455 | 97.59738 | 33874 ft | 457 kts | 333° |
| 2026-05-07 03:10 | 15.31138 | 97.56709 | 33873 ft | 457 kts | 333° |
| 2026-05-07 03:11 | 15.36781 | 97.53701 | 33871 ft | 457 kts | 333° |
| 2026-05-07 03:11 | 15.42486 | 97.50657 | 33875 ft | 457 kts | 333° |
| 2026-05-07 03:12 | 15.48164 | 97.47655 | 33874 ft | 457 kts | 333° |
| 2026-05-07 03:12 | 15.53866 | 97.44715 | 33879 ft | 457 kts | 334° |
| 2026-05-07 03:13 | 15.59586 | 97.41782 | 33878 ft | 458 kts | 334° |
| 2026-05-07 03:13 | 15.65282 | 97.38854 | 33882 ft | 456 kts | 333° |
| 2026-05-07 03:14 | 15.71000 | 97.35908 | 33879 ft | 456 kts | 333° |
| 2026-05-07 03:15 | 15.79581 | 97.31475 | 33879 ft | 458 kts | 333° |
| 2026-05-07 03:15 | 15.85275 | 97.28529 | 33879 ft | 457 kts | 333° |
| 2026-05-07 03:16 | 15.90994 | 97.25568 | 33882 ft | 459 kts | 333° |
| 2026-05-07 03:16 | 15.96720 | 97.22603 | 33880 ft | 458 kts | 333° |
| 2026-05-07 03:17 | 16.02441 | 97.19637 | 33880 ft | 456 kts | 333° |
| 2026-05-07 03:17 | 16.08147 | 97.16677 | 33877 ft | 456 kts | 333° |
| 2026-05-07 03:18 | 16.13848 | 97.13718 | 33882 ft | 458 kts | 333° |
| 2026-05-07 03:18 | 16.19576 | 97.10743 | 33882 ft | 457 kts | 333° |
| 2026-05-07 03:19 | 16.25240 | 97.07800 | 33881 ft | 457 kts | 333° |
| 2026-05-07 03:19 | 16.30968 | 97.04820 | 33882 ft | 457 kts | 333° |
| 2026-05-07 03:20 | 16.36662 | 97.01858 | 33879 ft | 457 kts | 333° |
| 2026-05-07 03:20 | 16.42383 | 96.98878 | 33871 ft | 457 kts | 333° |
| 2026-05-07 03:21 | 16.48094 | 96.95903 | 33865 ft | 457 kts | 333° |
| 2026-05-07 03:21 | 16.53773 | 96.92942 | 33864 ft | 456 kts | 333° |
| 2026-05-07 03:22 | 16.59470 | 96.89970 | 33862 ft | 457 kts | 333° |
| 2026-05-07 03:22 | 16.65149 | 96.87005 | 33862 ft | 456 kts | 332° |
| 2026-05-07 03:23 | 16.70847 | 96.84028 | 33861 ft | 457 kts | 332° |
| 2026-05-07 03:23 | 16.76533 | 96.81055 | 33863 ft | 456 kts | 332° |
| 2026-05-07 03:24 | 16.82211 | 96.78085 | 33864 ft | 457 kts | 332° |
| 2026-05-07 03:24 | 16.87892 | 96.75112 | 33864 ft | 456 kts | 332° |
| 2026-05-07 03:25 | 16.93609 | 96.72117 | 33866 ft | 456 kts | 332° |
| 2026-05-07 03:25 | 16.99293 | 96.69136 | 33864 ft | 456 kts | 332° |
| 2026-05-07 03:26 | 17.04953 | 96.66167 | 33866 ft | 456 kts | 332° |
| 2026-05-07 03:26 | 17.10650 | 96.63177 | 33864 ft | 455 kts | 332° |
| 2026-05-07 03:27 | 17.16303 | 96.60207 | 33865 ft | 455 kts | 332° |
| 2026-05-07 03:27 | 17.21962 | 96.57233 | 33867 ft | 454 kts | 332° |
| 2026-05-07 03:28 | 17.27613 | 96.54237 | 33865 ft | 453 kts | 330° |
| 2026-05-07 03:28 | 17.32718 | 96.50384 | 33866 ft | 451 kts | 314° |
| 2026-05-07 03:29 | 17.36839 | 96.45416 | 33866 ft | 450 kts | 307° |
| 2026-05-07 03:29 | 17.40589 | 96.40212 | 33866 ft | 449 kts | 306° |
| 2026-05-07 03:30 | 17.44298 | 96.34951 | 33858 ft | 449 kts | 305° |
| 2026-05-07 03:30 | 17.48020 | 96.29708 | 33858 ft | 448 kts | 306° |
| 2026-05-07 03:31 | 17.51785 | 96.24445 | 33858 ft | 448 kts | 306° |
| 2026-05-07 03:31 | 17.55518 | 96.19246 | 33857 ft | 447 kts | 306° |
| 2026-05-07 03:32 | 17.59248 | 96.14056 | 33860 ft | 447 kts | 306° |
| 2026-05-07 03:32 | 17.63001 | 96.08833 | 33860 ft | 447 kts | 306° |
| 2026-05-07 03:33 | 17.66734 | 96.03634 | 33858 ft | 447 kts | 306° |
| 2026-05-07 03:33 | 17.70473 | 95.98422 | 33861 ft | 447 kts | 306° |
| 2026-05-07 03:34 | 17.74198 | 95.93227 | 33858 ft | 445 kts | 305° |
| 2026-05-07 03:34 | 17.77930 | 95.88018 | 33857 ft | 445 kts | 305° |
| 2026-05-07 03:35 | 17.81650 | 95.82822 | 33857 ft | 446 kts | 305° |
| 2026-05-07 03:35 | 17.85362 | 95.77633 | 33854 ft | 445 kts | 305° |
| 2026-05-07 03:36 | 17.89080 | 95.72430 | 33852 ft | 446 kts | 305° |
| 2026-05-07 03:36 | 17.92800 | 95.67221 | 33854 ft | 446 kts | 305° |
| 2026-05-07 03:37 | 17.96529 | 95.61995 | 33854 ft | 445 kts | 305° |
| 2026-05-07 03:37 | 18.00227 | 95.56808 | 33856 ft | 445 kts | 305° |
| 2026-05-07 03:38 | 18.03970 | 95.51555 | 33858 ft | 446 kts | 305° |
| 2026-05-07 03:38 | 18.07679 | 95.46346 | 33858 ft | 445 kts | 305° |
| 2026-05-07 03:39 | 18.11383 | 95.41138 | 33857 ft | 445 kts | 304° |
| 2026-05-07 03:39 | 18.15093 | 95.35918 | 33859 ft | 446 kts | 304° |
| 2026-05-07 03:40 | 18.18790 | 95.30711 | 33858 ft | 446 kts | 304° |
| 2026-05-07 03:40 | 18.22521 | 95.25455 | 33858 ft | 445 kts | 304° |
| 2026-05-07 03:41 | 18.26199 | 95.20267 | 33861 ft | 445 kts | 304° |
| 2026-05-07 03:41 | 18.29914 | 95.15022 | 33868 ft | 444 kts | 304° |
| 2026-05-07 03:42 | 18.33523 | 95.09737 | 33871 ft | 444 kts | 302° |
| 2026-05-07 03:42 | 18.37017 | 95.04394 | 33872 ft | 444 kts | 302° |
| 2026-05-07 03:43 | 18.40502 | 94.99042 | 33874 ft | 444 kts | 302° |
| 2026-05-07 03:43 | 18.44019 | 94.93663 | 33893 ft | 443 kts | 302° |
| 2026-05-07 03:44 | 18.47517 | 94.88327 | 33922 ft | 443 kts | 302° |
| 2026-05-07 03:44 | 18.51009 | 94.83006 | 33955 ft | 443 kts | 302° |
| 2026-05-07 03:45 | 18.54522 | 94.77654 | 33980 ft | 441 kts | 302° |
| 2026-05-07 03:45 | 18.58020 | 94.72323 | 33996 ft | 442 kts | 302° |
| 2026-05-07 03:46 | 18.61594 | 94.67028 | 33976 ft | 441 kts | 303° |
| 2026-05-07 03:46 | 18.65218 | 94.61799 | 33955 ft | 441 kts | 303° |